Time;durP1;ratioP1;P1;durP2;ratioP2;P2;SDS_P1;SDS_P2;PMS_P1;PMS_P2;Temp;Humidity;BMP_temperature;BMP_pressure;BME280_temperature;BME280_humidity;BME280_pressure;Samples;Min_cycle;Max_cycle;Signal;HPM_P1;HPM_P2
2021/08/04 00:00:09;;;;;;;1.60;0.80;;;16.20;88.00;;;;;;6248563;23;20016;-74
2021/08/04 00:02:40;;;;;;;2.65;1.40;;;16.20;88.10;;;;;;6251357;23;20024;-75
2021/08/04 00:05:08;;;;;;;2.03;1.05;;;16.30;88.60;;;;;;6250757;23;20111;-75
2021/08/04 00:07:35;;;;;;;1.83;0.90;;;16.30;88.20;;;;;;6246957;23;20025;-75
2021/08/04 00:10:09;;;;;;;4.90;1.30;;;16.30;88.30;;;;;;6249285;23;20024;-77
2021/08/04 00:12:44;;;;;;;2.40;1.05;;;16.30;88.40;;;;;;6223634;23;20020;-75
2021/08/04 00:15:14;;;;;;;1.90;1.67;;;16.30;88.30;;;;;;6250360;23;20027;-76
2021/08/04 00:17:42;;;;;;;2.08;1.10;;;16.30;88.40;;;;;;6248846;23;20023;-76
2021/08/04 00:20:13;;;;;;;1.70;1.08;;;16.30;88.10;;;;;;6248865;23;20023;-75
2021/08/04 00:22:41;;;;;;;1.88;0.95;;;16.30;88.40;;;;;;6222731;23;20028;-75
2021/08/04 00:25:10;;;;;;;3.22;1.20;;;16.30;88.20;;;;;;6249225;22;20221;-74
2021/08/04 00:27:37;;;;;;;3.38;1.40;;;16.40;88.10;;;;;;6249014;23;20016;-76
2021/08/04 00:30:07;;;;;;;4.28;1.02;;;16.30;88.10;;;;;;6223229;23;20301;-75
2021/08/04 00:32:34;;;;;;;;;;;16.30;88.10;;;;;;6222431;23;20027;-76
2021/08/04 00:35:02;;;;;;;1.95;0.90;;;16.20;88.20;;;;;;6223595;23;19926;-75
2021/08/04 00:37:29;;;;;;;2.25;1.10;;;16.30;88.40;;;;;;6222308;23;20030;-75
2021/08/04 00:39:57;;;;;;;2.63;1.27;;;16.20;88.60;;;;;;6221000;23;20020;-75
2021/08/04 00:42:24;;;;;;;2.35;1.05;;;16.20;88.60;;;;;;6219190;23;20057;-75
2021/08/04 00:44:52;;;;;;;2.00;1.13;;;16.30;88.60;;;;;;6223133;23;20016;-76
2021/08/04 00:47:21;;;;;;;2.15;1.35;;;16.30;88.50;;;;;;6247524;23;20076;-77
2021/08/04 00:49:48;;;;;;;2.25;1.20;;;16.40;88.60;;;;;;6251833;23;20075;-74
2021/08/04 00:52:16;;;;;;;5.07;1.20;;;16.40;88.20;;;;;;6226023;23;20074;-75
2021/08/04 00:54:44;;;;;;;4.28;1.50;;;16.50;88.20;;;;;;6225485;23;20031;-75
2021/08/04 00:57:11;;;;;;;2.45;1.05;;;16.50;87.80;;;;;;6223079;23;20052;-75
2021/08/04 00:59:39;;;;;;;2.33;1.33;;;16.50;88.20;;;;;;6226771;23;20031;-76
2021/08/04 01:02:11;;;;;;;3.83;1.60;;;16.60;87.90;;;;;;6245316;23;20070;-77
2021/08/04 01:04:47;;;;;;;3.20;1.42;;;16.60;87.90;;;;;;6224685;23;20024;-74
2021/08/04 01:07:21;;;;;;;6.57;1.70;;;16.60;87.70;;;;;;6225902;23;20039;-77
2021/08/04 01:09:50;;;;;;;4.25;2.03;;;16.60;87.80;;;;;;6222687;23;20024;-77
2021/08/04 01:12:21;;;;;;;2.65;1.45;;;16.60;87.80;;;;;;6251286;23;20024;-74
2021/08/04 01:14:54;;;;;;;2.88;1.45;;;16.60;87.80;;;;;;6222985;23;20016;-76
2021/08/04 01:17:21;;;;;;;3.00;1.42;;;16.50;87.90;;;;;;6223228;23;20133;-75
2021/08/04 01:20:03;;;;;;;3.72;1.55;;;16.50;88.00;;;;;;6222613;23;20046;-74
2021/08/04 01:22:38;;;;;;;4.72;1.40;;;16.50;88.10;;;;;;6249924;23;20079;-74
2021/08/04 01:25:12;;;;;;;4.43;1.70;;;16.50;88.00;;;;;;6224680;23;20090;-75
2021/08/04 01:27:44;;;;;;;2.35;1.25;;;16.60;88.00;;;;;;6219581;23;20028;-75
2021/08/04 01:30:12;;;;;;;2.90;1.63;;;16.60;88.00;;;;;;6251545;23;20024;-74
2021/08/04 01:32:41;;;;;;;3.15;1.73;;;16.60;87.80;;;;;;6250072;23;20252;-76
2021/08/04 01:35:10;;;;;;;3.00;1.60;;;16.50;88.20;;;;;;6223144;23;20016;-74
2021/08/04 01:37:41;;;;;;;3.40;2.03;;;16.60;88.30;;;;;;6223767;23;20330;-75
2021/08/04 01:40:11;;;;;;;5.60;2.17;;;16.60;88.30;;;;;;6250370;23;20822;-75
2021/08/04 01:42:39;;;;;;;4.55;2.13;;;16.50;88.40;;;;;;6225257;23;20322;-76
2021/08/04 01:45:09;;;;;;;6.75;2.30;;;16.40;88.30;;;;;;6250788;23;20244;-75
2021/08/04 01:47:38;;;;;;;6.13;2.33;;;16.40;88.60;;;;;;6223030;23;20027;-76
2021/08/04 01:50:07;;;;;;;4.22;2.05;;;16.40;88.50;;;;;;6250205;23;20062;-76
2021/08/04 01:52:37;;;;;;;5.10;2.17;;;16.40;88.50;;;;;;6249054;23;20084;-76
2021/08/04 01:55:07;;;;;;;5.75;2.40;;;16.40;88.30;;;;;;6247445;23;20330;-75
2021/08/04 01:57:35;;;;;;;5.15;2.67;;;16.30;88.50;;;;;;6221965;23;20048;-75
2021/08/04 02:00:02;;;;;;;3.45;2.03;;;16.40;88.30;;;;;;6222834;23;20028;-74
2021/08/04 02:02:42;;;;;;;8.20;2.15;;;16.40;88.40;;;;;;6249836;23;20031;-75
2021/08/04 02:05:10;;;;;;;5.40;2.22;;;16.40;88.10;;;;;;6221675;22;20023;-75
2021/08/04 02:07:51;;;;;;;6.43;2.67;;;16.50;88.20;;;;;;6222687;23;20019;-74
2021/08/04 02:10:23;;;;;;;5.65;1.98;;;16.50;87.90;;;;;;6221746;23;20028;-76
2021/08/04 02:12:57;;;;;;;5.22;2.40;;;16.40;88.30;;;;;;6221287;23;20024;-77
2021/08/04 02:15:28;;;;;;;5.38;2.30;;;16.30;88.40;;;;;;6248787;23;20031;-74
2021/08/04 02:18:04;;;;;;;7.97;4.00;;;16.30;88.40;;;;;;6221752;23;20027;-75
2021/08/04 02:20:37;;;;;;;4.80;2.50;;;16.40;88.20;;;;;;6221566;23;20020;-75
2021/08/04 02:23:07;;;;;;;6.53;2.65;;;16.60;88.10;;;;;;6248747;23;20036;-76
2021/08/04 02:25:39;;;;;;;6.22;2.28;;;16.60;87.90;;;;;;6250452;23;20224;-76
2021/08/04 02:28:09;;;;;;;4.13;2.20;;;16.50;87.80;;;;;;6218917;23;20028;-76
2021/08/04 02:30:39;;;;;;;6.75;2.28;;;16.60;87.90;;;;;;6220396;23;20020;-76
2021/08/04 02:33:08;;;;;;;5.53;2.10;;;16.60;87.80;;;;;;6227483;23;20028;-75
2021/08/04 02:35:41;;;;;;;4.85;2.55;;;16.60;87.70;;;;;;6253540;23;20012;-74
2021/08/04 02:38:10;;;;;;;6.32;2.90;;;16.50;87.50;;;;;;6225921;23;20075;-74
2021/08/04 02:40:37;;;;;;;5.18;2.70;;;16.60;87.70;;;;;;6253851;23;20024;-74
2021/08/04 02:43:05;;;;;;;4.20;2.30;;;16.60;87.10;;;;;;6226849;23;20028;-77
2021/08/04 02:45:33;;;;;;;4.70;2.25;;;16.40;87.80;;;;;;6225064;23;20024;-74
2021/08/04 02:48:00;;;;;;;6.07;2.50;;;16.40;87.90;;;;;;6252764;23;20024;-76
2021/08/04 02:50:38;;;;;;;5.63;2.70;;;16.50;87.90;;;;;;6224070;23;20255;-77
2021/08/04 02:53:07;;;;;;;5.97;2.35;;;16.40;88.40;;;;;;6250835;23;20141;-76
2021/08/04 02:55:34;;;;;;;5.00;2.58;;;16.30;87.90;;;;;;6223104;23;20051;-75
2021/08/04 02:58:01;;;;;;;5.10;2.50;;;16.30;88.20;;;;;;6220233;23;20054;-75
2021/08/04 03:00:30;;;;;;;4.43;2.17;;;16.30;87.80;;;;;;6217486;23;20054;-76
2021/08/04 03:02:57;;;;;;;6.88;2.33;;;16.30;88.00;;;;;;6249538;23;20366;-76
2021/08/04 03:05:24;;;;;;;4.40;2.25;;;16.30;88.20;;;;;;6247376;23;20292;-76
2021/08/04 03:07:53;;;;;;;6.57;2.72;;;16.20;88.10;;;;;;6247887;23;20426;-75
2021/08/04 03:10:20;;;;;;;5.78;2.70;;;16.30;88.10;;;;;;6223512;23;20047;-76
2021/08/04 03:12:48;;;;;;;5.45;2.65;;;16.20;88.30;;;;;;6221734;23;20028;-75
2021/08/04 03:15:15;;;;;;;5.78;2.85;;;16.30;88.20;;;;;;6220589;23;20193;-74
2021/08/04 03:17:42;;;;;;;4.78;2.33;;;16.20;88.50;;;;;;6248359;23;20731;-75
2021/08/04 03:20:11;;;;;;;4.97;2.40;;;16.20;88.50;;;;;;6222602;23;20032;-76
2021/08/04 03:22:43;;;;;;;5.97;3.10;;;16.30;88.50;;;;;;6248007;23;20016;-74
2021/08/04 03:25:14;;;;;;;5.57;2.67;;;16.30;88.70;;;;;;6249497;23;20031;-76
2021/08/04 03:27:41;;;;;;;5.03;1.98;;;16.40;88.60;;;;;;6247630;23;20227;-76
2021/08/04 03:30:10;;;;;;;5.20;2.58;;;16.20;88.20;;;;;;6248918;23;20089;-74
2021/08/04 03:32:40;;;;;;;6.32;2.70;;;16.30;88.10;;;;;;6219942;23;20366;-74
2021/08/04 03:35:08;;;;;;;3.78;2.28;;;16.20;88.20;;;;;;6220117;23;20111;-75
2021/08/04 03:37:36;;;;;;;5.40;2.50;;;16.20;88.20;;;;;;6247891;23;20016;-76
2021/08/04 03:40:04;;;;;;;6.47;2.95;;;16.20;88.10;;;;;;6249148;23;20024;-74
2021/08/04 03:42:32;;;;;;;5.13;2.47;;;16.30;88.00;;;;;;6246003;23;20028;-76
2021/08/04 03:45:00;;;;;;;4.78;2.72;;;16.30;87.30;;;;;;6246367;22;20035;-75
2021/08/04 03:47:31;;;;;;;7.47;2.88;;;16.40;87.40;;;;;;6248750;23;20016;-76
2021/08/04 03:49:58;;;;;;;5.70;2.58;;;16.30;87.40;;;;;;6218827;23;20475;-75
2021/08/04 03:52:25;;;;;;;9.52;3.50;;;16.20;87.80;;;;;;6184163;23;20031;-74
2021/08/04 03:54:53;;;;;;;5.18;3.00;;;16.30;87.40;;;;;;6190777;23;20210;-77
2021/08/04 03:57:20;;;;;;;4.82;2.53;;;16.30;87.70;;;;;;6187296;23;20061;-77
2021/08/04 03:59:48;;;;;;;4.57;2.90;;;16.30;87.20;;;;;;6184637;23;20028;-75
2021/08/04 04:02:16;;;;;;;5.20;2.80;;;16.20;87.60;;;;;;6180222;23;20025;-75
2021/08/04 04:04:43;;;;;;;6.85;2.97;;;16.10;87.90;;;;;;6187400;23;20025;-75
2021/08/04 04:07:10;;;;;;;7.05;3.10;;;16.10;88.00;;;;;;6186895;23;20021;-75
2021/08/04 04:09:37;;;;;;;5.97;3.05;;;16.20;87.80;;;;;;6189072;23;20017;-74
2021/08/04 04:12:05;;;;;;;4.38;2.58;;;16.20;87.60;;;;;;6187288;23;20233;-77
2021/08/04 04:14:33;;;;;;;6.68;3.33;;;16.20;87.80;;;;;;6162560;23;20029;-74
2021/08/04 04:17:01;;;;;;;6.25;3.25;;;16.30;87.50;;;;;;6188641;23;20243;-75
2021/08/04 04:19:35;;;;;;;5.85;2.72;;;16.20;87.70;;;;;;6188280;23;20144;-75
2021/08/04 04:22:02;;;;;;;5.35;2.90;;;16.20;87.80;;;;;;6186330;23;20328;-76
2021/08/04 04:24:29;;;;;;;4.97;2.83;;;16.20;87.60;;;;;;6188824;23;20029;-74
2021/08/04 04:26:57;;;;;;;6.45;3.53;;;16.20;87.80;;;;;;6187496;23;20021;-74
2021/08/04 04:29:24;;;;;;;5.50;2.88;;;16.20;87.90;;;;;;6188897;23;20105;-75
2021/08/04 04:31:51;;;;;;;5.85;3.42;;;16.30;87.70;;;;;;6186658;23;20032;-76
2021/08/04 04:34:20;;;;;;;6.00;3.03;;;16.30;87.80;;;;;;6185918;23;20339;-76
2021/08/04 04:36:47;;;;;;;8.23;3.38;;;16.40;87.70;;;;;;6186054;23;20021;-74
2021/08/04 04:39:14;;;;;;;6.53;3.50;;;16.40;87.10;;;;;;6189528;23;20017;-77
2021/08/04 04:41:41;;;;;;;9.63;3.25;;;16.30;87.70;;;;;;6189706;23;20025;-75
2021/08/04 04:44:08;;;;;;;7.93;3.22;;;16.50;87.50;;;;;;6187174;23;20025;-76
2021/08/04 04:46:37;;;;;;;4.93;2.90;;;16.40;87.40;;;;;;6190349;23;20037;-76
2021/08/04 04:49:04;;;;;;;6.03;3.08;;;16.40;87.50;;;;;;6186116;23;20032;-77
2021/08/04 04:51:33;;;;;;;6.25;3.10;;;16.40;87.40;;;;;;6225867;23;20020;-74
2021/08/04 04:54:00;;;;;;;8.50;3.67;;;16.40;87.20;;;;;;6248141;23;20036;-76
2021/08/04 04:56:32;;;;;;;6.22;3.10;;;16.40;87.40;;;;;;6248850;23;20379;-75
2021/08/04 04:59:00;;;;;;;7.88;2.97;;;16.60;87.10;;;;;;6222912;23;20201;-77
2021/08/04 05:01:29;;;;;;;6.55;3.55;;;16.50;87.10;;;;;;6243280;23;20096;-75
2021/08/04 05:03:56;;;;;;;5.30;3.13;;;16.30;87.00;;;;;;6247576;23;20366;-77
2021/08/04 05:06:23;;;;;;;8.55;3.38;;;16.40;87.20;;;;;;6245999;23;20012;-77
2021/08/04 05:08:52;;;;;;;7.00;3.50;;;16.50;86.70;;;;;;6217155;23;20023;-75
2021/08/04 05:11:19;;;;;;;5.85;2.90;;;16.40;86.50;;;;;;6245697;23;20008;-75
2021/08/04 05:13:46;;;;;;;5.47;2.90;;;16.50;86.60;;;;;;6244114;23;20030;-75
2021/08/04 05:16:13;;;;;;;7.25;2.92;;;16.50;86.80;;;;;;6246731;23;20305;-76
2021/08/04 05:18:40;;;;;;;6.32;3.70;;;16.60;87.00;;;;;;6218065;23;20028;-75
2021/08/04 05:21:08;;;;;;;6.60;3.13;;;16.60;86.30;;;;;;6249908;23;20486;-76
2021/08/04 05:23:38;;;;;;;5.15;2.88;;;16.60;86.50;;;;;;6244886;23;20027;-75
2021/08/04 05:26:06;;;;;;;7.65;2.97;;;16.60;86.40;;;;;;6245082;22;20024;-75
2021/08/04 05:28:33;;;;;;;6.28;3.47;;;16.60;86.20;;;;;;6243499;23;20379;-76
2021/08/04 05:31:01;;;;;;;7.50;3.67;;;16.60;86.20;;;;;;6248617;23;20016;-76
2021/08/04 05:33:31;;;;;;;5.97;3.40;;;16.50;86.70;;;;;;6248529;23;20269;-75
2021/08/04 05:35:58;;;;;;;8.07;3.22;;;16.60;86.70;;;;;;6246137;23;20027;-77
2021/08/04 05:38:25;;;;;;;6.38;3.20;;;16.60;85.80;;;;;;6249776;23;20394;-74
2021/08/04 05:40:52;;;;;;;5.72;3.13;;;16.80;86.00;;;;;;6246170;23;20030;-75
2021/08/04 05:43:21;;;;;;;8.00;3.20;;;16.80;85.40;;;;;;6248288;23;20197;-76
2021/08/04 05:45:48;;;;;;;6.93;3.80;;;16.80;85.80;;;;;;6221601;23;20027;-75
2021/08/04 05:48:15;;;;;;;6.30;3.33;;;16.70;85.80;;;;;;6248902;23;20332;-75
2021/08/04 05:50:42;;;;;;;6.18;2.97;;;16.70;85.90;;;;;;6250423;23;20316;-76
2021/08/04 05:53:10;;;;;;;6.00;3.33;;;16.80;85.10;;;;;;6250850;23;20024;-78
2021/08/04 05:55:37;;;;;;;4.97;2.78;;;16.80;85.30;;;;;;6245101;23;20328;-76
2021/08/04 05:58:05;;;;;;;7.43;3.30;;;16.80;85.40;;;;;;6249433;23;20059;-74
2021/08/04 06:00:34;;;;;;;8.02;3.30;;;16.80;85.10;;;;;;6244712;23;20011;-76
2021/08/04 06:03:01;;;;;;;8.18;3.42;;;16.80;85.20;;;;;;6220717;23;20324;-77
2021/08/04 06:05:30;;;;;;;5.47;2.80;;;16.80;85.60;;;;;;6249221;23;20024;-75
2021/08/04 06:07:57;;;;;;;6.18;3.20;;;17.10;84.70;;;;;;6250117;23;20067;-76
2021/08/04 06:10:24;;;;;;;6.75;3.45;;;17.00;85.00;;;;;;6248169;23;20023;-77
2021/08/04 06:12:51;;;;;;;7.65;3.10;;;17.10;85.00;;;;;;6249715;23;20047;-77
2021/08/04 06:15:19;;;;;;;5.75;3.50;;;17.10;84.50;;;;;;6248365;23;20024;-75
2021/08/04 06:17:47;;;;;;;7.43;2.90;;;17.10;84.30;;;;;;6223130;23;20024;-76
2021/08/04 06:20:14;;;;;;;7.18;2.90;;;17.20;84.30;;;;;;6250168;23;20024;-76
2021/08/04 06:22:42;;;;;;;9.98;3.20;;;17.30;84.10;;;;;;6223398;23;20335;-76
2021/08/04 06:25:10;;;;;;;5.85;3.38;;;17.30;83.80;;;;;;6252062;23;20031;-76
2021/08/04 06:27:38;;;;;;;7.63;3.47;;;17.30;83.70;;;;;;6223481;23;20035;-76
2021/08/04 06:30:06;;;;;;;6.47;3.22;;;17.30;83.60;;;;;;6222529;23;20019;-77
2021/08/04 06:32:33;;;;;;;7.45;3.40;;;17.40;83.10;;;;;;6253189;23;20487;-75
2021/08/04 06:35:02;;;;;;;5.75;3.40;;;17.60;83.10;;;;;;6247432;23;20024;-76
2021/08/04 06:37:30;;;;;;;7.70;3.80;;;17.70;82.40;;;;;;6248129;23;20018;-75
2021/08/04 06:39:57;;;;;;;8.07;3.78;;;17.70;82.50;;;;;;6220947;23;20028;-76
2021/08/04 06:42:24;;;;;;;10.73;4.22;;;17.50;82.90;;;;;;6222200;23;20055;-75
2021/08/04 06:44:52;;;;;;;8.15;3.97;;;17.60;82.80;;;;;;6248765;23;20016;-75
2021/08/04 06:47:20;;;;;;;11.25;4.40;;;17.50;82.60;;;;;;6247824;23;20051;-75
2021/08/04 06:49:47;;;;;;;8.77;3.53;;;17.40;82.90;;;;;;6247142;23;20024;-75
2021/08/04 06:52:16;;;;;;;7.15;3.35;;;17.40;82.70;;;;;;6249051;23;20024;-77
2021/08/04 06:54:43;;;;;;;6.53;3.63;;;17.40;82.70;;;;;;6221294;23;20396;-78
2021/08/04 06:57:10;;;;;;;8.20;3.60;;;17.50;82.20;;;;;;6247063;23;20008;-77
2021/08/04 06:59:38;;;;;;;6.00;3.85;;;17.40;82.50;;;;;;6248081;23;20016;-75
2021/08/04 07:02:05;;;;;;;8.98;3.72;;;17.60;82.50;;;;;;6242100;23;20024;-77
2021/08/04 07:04:33;;;;;;;5.72;3.42;;;17.60;82.20;;;;;;6248047;23;20070;-75
2021/08/04 07:07:02;;;;;;;7.03;3.80;;;17.90;82.00;;;;;;6247943;22;20083;-75
2021/08/04 07:09:37;;;;;;;5.80;3.45;;;17.90;80.90;;;;;;6221238;23;20016;-77
2021/08/04 07:12:05;;;;;;;7.47;3.30;;;18.00;80.80;;;;;;6220010;23;20044;-76
2021/08/04 07:14:32;;;;;;;6.30;3.53;;;18.00;80.70;;;;;;6244124;23;20039;-77
2021/08/04 07:16:59;;;;;;;6.93;3.92;;;18.10;81.30;;;;;;6248928;23;20024;-74
2021/08/04 07:19:26;;;;;;;6.20;3.83;;;18.00;80.40;;;;;;6221272;23;20020;-75
2021/08/04 07:21:54;;;;;;;9.95;3.78;;;17.90;81.10;;;;;;6247424;23;20023;-75
2021/08/04 07:24:21;;;;;;;5.68;3.50;;;18.00;79.90;;;;;;6251786;23;20028;-78
2021/08/04 07:26:50;;;;;;;5.05;3.17;;;17.90;80.90;;;;;;6250586;23;20018;-77
2021/08/04 07:29:17;;;;;;;9.57;4.78;;;18.10;80.80;;;;;;6250501;23;20024;-76
2021/08/04 07:31:46;;;;;;;5.18;3.00;;;18.10;80.60;;;;;;6224490;23;20063;-75
2021/08/04 07:34:15;;;;;;;6.80;3.60;;;18.40;80.40;;;;;;6222379;23;20020;-76
2021/08/04 07:36:42;;;;;;;6.97;4.03;;;18.80;79.00;;;;;;6249605;23;20386;-76
2021/08/04 07:39:10;;;;;;;6.35;3.33;;;19.00;77.90;;;;;;6249767;23;20226;-75
2021/08/04 07:41:37;;;;;;;5.95;3.53;;;19.30;76.40;;;;;;6223661;23;20030;-77
2021/08/04 07:44:06;;;;;;;5.25;3.10;;;19.50;76.50;;;;;;6250014;23;20394;-77
2021/08/04 07:46:34;;;;;;;7.23;4.20;;;19.40;75.70;;;;;;6250291;23;20024;-76
2021/08/04 07:49:01;;;;;;;10.85;3.47;;;19.50;75.40;;;;;;6221406;23;20204;-76
2021/08/04 07:51:28;;;;;;;5.32;2.90;;;19.70;75.40;;;;;;6250014;23;20039;-76
2021/08/04 07:53:55;;;;;;;7.57;3.30;;;19.60;74.20;;;;;;6247827;23;20023;-77
2021/08/04 07:56:23;;;;;;;6.10;2.78;;;19.70;74.70;;;;;;6250052;23;20024;-76
2021/08/04 07:58:51;;;;;;;5.82;3.40;;;19.60;74.90;;;;;;6225811;23;20050;-76
2021/08/04 08:01:20;;;;;;;10.18;2.97;;;19.60;74.10;;;;;;6215477;23;20084;-77
2021/08/04 08:03:47;;;;;;;6.57;3.00;;;19.60;74.20;;;;;;6250374;23;20039;-74
2021/08/04 08:06:14;;;;;;;7.63;3.97;;;19.70;74.00;;;;;;6249723;23;20023;-77
2021/08/04 08:08:41;;;;;;;5.78;3.38;;;19.60;74.60;;;;;;6250505;23;20012;-78
2021/08/04 08:11:09;;;;;;;5.07;3.22;;;19.60;73.90;;;;;;6250995;23;20035;-77
2021/08/04 08:13:36;;;;;;;6.85;2.88;;;19.80;73.80;;;;;;6251073;23;20657;-77
2021/08/04 08:16:03;;;;;;;5.22;2.78;;;19.70;74.00;;;;;;6222093;23;20027;-77
2021/08/04 08:18:33;;;;;;;6.13;3.08;;;19.60;73.20;;;;;;6248472;23;20020;-74
2021/08/04 08:21:01;;;;;;;7.35;2.97;;;19.80;73.40;;;;;;6249302;23;20024;-76
2021/08/04 08:23:30;;;;;;;6.20;2.92;;;20.30;72.00;;;;;;6222184;23;20028;-75
2021/08/04 08:25:57;;;;;;;4.35;2.42;;;20.30;70.90;;;;;;6249148;23;20040;-76
2021/08/04 08:28:24;;;;;;;6.78;2.90;;;20.40;70.30;;;;;;6247428;23;20020;-75
2021/08/04 08:30:51;;;;;;;5.00;2.60;;;20.20;71.00;;;;;;6248235;23;20008;-76
2021/08/04 08:33:19;;;;;;;6.07;2.67;;;20.30;69.70;;;;;;6219775;23;20090;-80
2021/08/04 08:35:47;;;;;;;4.22;2.45;;;20.20;71.70;;;;;;6219671;23;20032;-77
2021/08/04 08:38:15;;;;;;;4.90;2.72;;;20.50;70.00;;;;;;6249273;23;20023;-78
2021/08/04 08:40:45;;;;;;;7.18;2.78;;;20.70;69.80;;;;;;6223960;23;20022;-78
2021/08/04 08:43:12;;;;;;;;;;;20.70;69.50;;;;;;6221851;23;20322;-78
2021/08/04 08:45:41;;;;;;;5.65;2.10;;;20.40;69.80;;;;;;6249462;22;19926;-77
2021/08/04 08:48:09;;;;;;;4.35;2.22;;;20.70;69.60;;;;;;6246943;23;20024;-77
2021/08/04 08:50:40;;;;;;;4.30;2.47;;;20.80;69.20;;;;;;6249587;23;20083;-78
2021/08/04 08:53:08;;;;;;;4.55;2.67;;;20.50;68.80;;;;;;6249062;23;20016;-77
2021/08/04 08:55:36;;;;;;;4.85;2.53;;;20.60;69.40;;;;;;6249135;23;20023;-78
2021/08/04 08:58:03;;;;;;;4.88;2.60;;;20.80;68.30;;;;;;6249457;23;20023;-78
2021/08/04 09:00:31;;;;;;;4.05;2.33;;;20.50;68.20;;;;;;6243789;23;20095;-78
2021/08/04 09:02:58;;;;;;;7.60;2.22;;;20.50;68.50;;;;;;6248771;23;20106;-76
2021/08/04 09:05:51;;;;;;;4.78;2.25;;;20.60;68.40;;;;;;6218942;23;20090;-77
2021/08/04 09:08:27;;;;;;;4.28;2.15;;;20.60;68.90;;;;;;6245511;23;20047;-78
2021/08/04 09:10:56;;;;;;;3.75;2.10;;;20.40;68.30;;;;;;6250213;23;20043;-78
2021/08/04 09:13:32;;;;;;;5.18;2.40;;;20.10;68.30;;;;;;6251177;23;20016;-78
2021/08/04 09:16:06;;;;;;;6.00;2.65;;;20.10;69.30;;;;;;6250954;23;20404;-76
2021/08/04 09:18:42;;;;;;;4.15;2.47;;;20.00;69.70;;;;;;6220818;23;20083;-76
2021/08/04 09:21:10;;;;;;;6.47;2.47;;;19.90;70.80;;;;;;6222702;23;20095;-77
2021/08/04 09:23:47;;;;;;;4.60;2.20;;;20.10;70.70;;;;;;6250749;23;20016;-77
2021/08/04 09:26:16;;;;;;;4.57;2.42;;;20.30;69.80;;;;;;6225423;23;20043;-78
2021/08/04 09:28:58;;;;;;;4.93;2.60;;;20.30;69.20;;;;;;6251327;23;20030;-78
2021/08/04 09:31:45;;;;;;;4.97;2.72;;;20.40;69.70;;;;;;6249638;23;20090;-78
2021/08/04 09:34:30;;;;;;;4.07;2.15;;;20.40;69.40;;;;;;6251535;23;20102;-78
2021/08/04 09:37:02;;;;;;;6.18;2.58;;;20.40;69.80;;;;;;6247762;23;20353;-76
2021/08/04 09:39:31;;;;;;;6.68;2.80;;;20.60;69.20;;;;;;6247300;23;20028;-78
2021/08/04 09:41:59;;;;;;;4.53;2.80;;;20.50;69.50;;;;;;6252232;23;20080;-77
2021/08/04 09:44:27;;;;;;;6.95;3.03;;;20.20;69.10;;;;;;6246157;23;20031;-78
2021/08/04 09:47:07;;;;;;;5.40;2.92;;;20.40;70.10;;;;;;6249875;23;20227;-76
2021/08/04 09:49:34;;;;;;;4.50;2.40;;;20.20;70.10;;;;;;6222653;23;20197;-76
2021/08/04 09:52:07;;;;;;;5.40;2.30;;;20.40;70.70;;;;;;6225696;23;20365;-77
2021/08/04 09:54:42;;;;;;;4.75;2.42;;;20.20;70.90;;;;;;6222702;23;20042;-78
2021/08/04 09:57:10;;;;;;;3.72;2.13;;;20.10;71.50;;;;;;6248359;23;20215;-78
2021/08/04 09:59:38;;;;;;;3.83;2.35;;;20.00;72.20;;;;;;6252543;23;20039;-77
2021/08/04 10:02:06;;;;;;;4.22;1.98;;;20.30;71.50;;;;;;6246434;23;20063;-77
2021/08/04 10:04:33;;;;;;;3.70;1.80;;;20.10;71.00;;;;;;6248441;23;20016;-76
2021/08/04 10:07:06;;;;;;;3.97;1.95;;;20.30;69.40;;;;;;6250972;23;20031;-78
2021/08/04 10:09:34;;;;;;;2.83;1.63;;;20.40;68.60;;;;;;6245457;23;20024;-77
2021/08/04 10:12:09;;;;;;;3.35;1.80;;;20.60;67.00;;;;;;6248740;23;20024;-77
2021/08/04 10:14:37;;;;;;;7.30;2.63;;;21.00;66.00;;;;;;6249510;23;20020;-77
2021/08/04 10:17:07;;;;;;;10.02;2.90;;;21.00;66.90;;;;;;6219737;23;20034;-77
2021/08/04 10:19:36;;;;;;;4.45;2.45;;;21.30;66.90;;;;;;6223301;23;20024;-77
2021/08/04 10:22:12;;;;;;;4.28;2.30;;;21.60;66.70;;;;;;6221692;23;20038;-78
2021/08/04 10:24:51;;;;;;;3.75;2.25;;;21.90;66.60;;;;;;6230315;23;20103;-79
2021/08/04 10:27:20;;;;;;;3.92;2.40;;;22.10;66.20;;;;;;6228422;23;20024;-77
2021/08/04 10:29:47;;;;;;;4.28;2.42;;;22.20;65.20;;;;;;6250646;23;20346;-78
2021/08/04 10:32:15;;;;;;;4.85;2.80;;;22.10;65.20;;;;;;6251270;23;20035;-78
2021/08/04 10:34:45;;;;;;;5.32;2.20;;;21.70;64.80;;;;;;6254088;23;20016;-79
2021/08/04 10:37:13;;;;;;;4.63;2.05;;;22.00;65.20;;;;;;6223924;23;20024;-77
2021/08/04 10:39:41;;;;;;;5.57;3.25;;;22.50;63.80;;;;;;6244234;23;20012;-78
2021/08/04 10:42:09;;;;;;;8.27;3.15;;;22.50;62.00;;;;;;6220252;23;20050;-75
2021/08/04 10:44:39;;;;;;;6.63;2.90;;;22.20;62.60;;;;;;6226283;23;20028;-78
2021/08/04 10:47:27;;;;;;;5.28;2.75;;;22.60;62.20;;;;;;6227418;23;20039;-78
2021/08/04 10:50:09;;;;;;;5.50;3.15;;;22.50;61.20;;;;;;6253878;23;20015;-77
2021/08/04 10:52:57;;;;;;;4.80;2.75;;;22.70;61.50;;;;;;6252218;23;20016;-76
2021/08/04 10:55:25;;;;;;;3.60;2.53;;;23.20;59.90;;;;;;6252370;23;20326;-78
2021/08/04 10:58:16;;;;;;;4.50;2.50;;;24.10;57.00;;;;;;6253912;23;20067;-77
2021/08/04 11:00:47;;;;;;;4.05;2.22;;;24.80;54.60;;;;;;6248910;23;20313;-78
2021/08/04 11:03:50;;;;;;;4.65;2.50;;;25.70;52.70;;;;;;6252076;23;20016;-79
2021/08/04 11:06:17;;;;;;;3.65;1.88;;;25.70;50.60;;;;;;6217017;23;20051;-78
2021/08/04 11:08:49;;;;;;;4.18;1.70;;;27.10;44.90;;;;;;6252454;23;20282;-76
2021/08/04 11:11:54;;;;;;;2.97;1.70;;;27.00;44.20;;;;;;6225450;23;20020;-76
2021/08/04 11:14:39;;;;;;;2.95;1.60;;;26.60;45.70;;;;;;6251237;23;20387;-77
2021/08/04 11:17:09;;;;;;;3.75;1.67;;;27.30;44.80;;;;;;6251269;23;20016;-78
2021/08/04 11:20:09;;;;;;;3.10;1.33;;;26.60;44.90;;;;;;6250612;23;20013;-78
2021/08/04 11:22:53;;;;;;;5.38;1.10;;;27.00;45.20;;;;;;6225919;23;20044;-77
2021/08/04 11:25:35;;;;;;;2.67;1.25;;;27.10;43.60;;;;;;6255159;23;20027;-76
2021/08/04 11:28:17;;;;;;;3.42;1.52;;;28.10;42.60;;;;;;6254092;23;20020;-79
2021/08/04 11:30:56;;;;;;;2.30;1.20;;;28.30;42.30;;;;;;6226903;23;20034;-78
2021/08/04 11:33:43;;;;;;;1.83;0.93;;;29.30;39.60;;;;;;6254137;23;20024;-76
2021/08/04 11:36:16;;;;;;;2.75;1.10;;;32.50;35.80;;;;;;6227898;23;20028;-78
2021/08/04 11:38:55;;;;;;;2.10;1.23;;;33.40;31.30;;;;;;6227743;23;20050;-77
2021/08/04 11:41:27;;;;;;;;;;;32.10;33.70;;;;;;6252181;23;20031;-77
2021/08/04 11:43:59;;;;;;;2.38;1.20;;;33.10;33.00;;;;;;6253449;23;19927;-78
2021/08/04 11:46:35;;;;;;;1.88;1.02;;;35.60;29.40;;;;;;6224430;23;20035;-75
2021/08/04 11:49:07;;;;;;;3.65;1.10;;;35.80;28.50;;;;;;6222502;23;20083;-76
2021/08/04 11:51:40;;;;;;;3.25;1.63;;;35.90;27.90;;;;;;6223582;23;20638;-78
2021/08/04 11:54:09;;;;;;;2.13;1.10;;;34.50;30.00;;;;;;6221565;23;20020;-76
2021/08/04 11:56:43;;;;;;;1.65;0.80;;;31.20;36.30;;;;;;6251327;23;20312;-77
2021/08/04 11:59:11;;;;;;;1.52;1.05;;;30.70;36.70;;;;;;6222296;23;20031;-76
2021/08/04 12:01:38;;;;;;;5.07;1.13;;;30.00;38.90;;;;;;6220890;23;20020;-77
2021/08/04 12:04:10;;;;;;;2.15;1.20;;;29.30;41.00;;;;;;6248972;23;20246;-78
2021/08/04 12:06:38;;;;;;;3.30;1.10;;;28.10;42.00;;;;;;6246211;22;20028;-77
2021/08/04 12:09:20;;;;;;;4.93;1.30;;;27.00;45.10;;;;;;6219717;23;20046;-79
2021/08/04 12:11:48;;;;;;;2.67;1.20;;;26.00;48.30;;;;;;6250412;23;20024;-77
2021/08/04 12:14:18;;;;;;;5.45;1.27;;;25.90;49.10;;;;;;6250013;23;20023;-78
2021/08/04 12:16:48;;;;;;;2.70;1.42;;;25.70;48.90;;;;;;6249632;23;20016;-78
2021/08/04 12:19:36;;;;;;;3.53;1.30;;;25.30;49.80;;;;;;6250215;23;20020;-77
2021/08/04 12:22:05;;;;;;;2.90;1.20;;;25.60;49.90;;;;;;6221777;23;20078;-79
2021/08/04 12:24:47;;;;;;;3.22;1.20;;;25.50;50.80;;;;;;6224562;23;20028;-77
2021/08/04 12:27:28;;;;;;;3.35;1.30;;;26.00;50.10;;;;;;6223173;23;20066;-77
2021/08/04 12:30:10;;;;;;;2.60;1.13;;;26.00;50.00;;;;;;6225805;23;20051;-78
2021/08/04 12:32:54;;;;;;;2.03;1.15;;;25.60;50.50;;;;;;6251172;23;20031;-75
2021/08/04 12:35:26;;;;;;;5.80;1.17;;;25.60;50.60;;;;;;6250502;23;20383;-75
2021/08/04 12:37:54;;;;;;;4.40;1.50;;;25.80;49.30;;;;;;6252861;23;20042;-79
2021/08/04 12:40:21;;;;;;;4.57;1.35;;;25.30;51.10;;;;;;6254031;23;20016;-78
2021/08/04 12:42:49;;;;;;;2.75;1.02;;;25.60;50.80;;;;;;6229155;23;20024;-78
2021/08/04 12:45:25;;;;;;;1.50;1.08;;;25.60;50.90;;;;;;6228953;23;20028;-78
2021/08/04 12:47:55;;;;;;;2.17;1.13;;;25.50;51.30;;;;;;6229477;23;20104;-79
2021/08/04 12:50:26;;;;;;;2.15;1.20;;;25.70;50.40;;;;;;6227980;23;20032;-79
2021/08/04 12:52:54;;;;;;;1.45;1.08;;;25.40;51.60;;;;;;6254753;23;20072;-78
2021/08/04 12:55:23;;;;;;;3.35;1.23;;;25.70;50.20;;;;;;6257110;23;20080;-79
2021/08/04 12:58:04;;;;;;;2.55;1.30;;;25.80;49.90;;;;;;6252415;23;20024;-79
2021/08/04 13:00:33;;;;;;;3.28;1.20;;;25.00;52.40;;;;;;6247824;23;20094;-78
2021/08/04 13:03:01;;;;;;;2.47;1.67;;;25.60;52.00;;;;;;6254432;23;20338;-78